»·PEaware :: FDX5954 KRNO-KBUR

FDX5954 :: KRNO-KBUR

FLIGHT INFORMATION

Flight Status: Arrived
Operator:
Federal Express
More flights by this operator :: More flights under this callsign
Pilot: Joshua M. (19482)
Aircraft: BOEING 737-800
(B738)
More flights by this aircraft type
Origin: KRNO Reno/Tahoe Intl
United States
Destination: KBUR Bob Hope-Burbank
United States
More flights between these airports :: More routes between these airports
Route: RENO9 FMG J7 DERBB FERN7
File this flight plan on PilotEdge
Remarks: Outdated FMC Default XPlane
Altitude:
(Current/Filed)
33,000ft
Speed:
(Current/Filed)
450kts
Departed: 07-Aug-18 08:02 PM
Arrived: 07-Aug-18 09:15 PM
Distance/Time
Traveled:
325nm/1:13
Distance/Time
To Go:
Arrived

Flight Plot

Page will automatically refresh every two minutes.

Flight plan parsing failed; only flown route is shown


Map Options




Map Legend


Flown Route
Filed Route
Departure Airport
Arrival Airport
Navaid (VOR, NDB)
Fix

Horizontal Profiles

Position Reports

Time Latitude Longitude Heading Altitude Ground
Speed
07-Aug-18 19:19 39.508517 -119.773127 180 4422ft 0kts
07-Aug-18 19:20 39.508517 -119.773127 180 4422ft 0kts
07-Aug-18 19:21 39.508517 -119.773127 180 4422ft 0kts
07-Aug-18 19:22 39.508517 -119.773127 0 4422ft 0kts
07-Aug-18 19:23 39.508517 -119.773127 180 4422ft 0kts
07-Aug-18 19:24 39.508517 -119.773127 180 4422ft 0kts
07-Aug-18 19:25 39.508517 -119.773127 180 4422ft 0kts
07-Aug-18 19:26 39.508517 -119.773127 180 4422ft 0kts
07-Aug-18 19:27 39.508517 -119.773127 180 4422ft 0kts
07-Aug-18 19:28 39.508517 -119.773127 180 4422ft 0kts
07-Aug-18 19:29 39.508517 -119.773127 180 4422ft 0kts
07-Aug-18 19:30 39.508517 -119.773127 180 4422ft 0kts
07-Aug-18 19:31 39.508517 -119.773127 180 4422ft 0kts
07-Aug-18 19:32 39.508517 -119.773127 180 4422ft 0kts
07-Aug-18 19:33 39.508517 -119.773127 180 4422ft 0kts
07-Aug-18 19:34 39.508517 -119.773127 180 4422ft 0kts
07-Aug-18 19:35 39.508517 -119.773127 180 4422ft 0kts
07-Aug-18 19:36 39.508517 -119.773127 180 4422ft 0kts
07-Aug-18 19:37 39.508517 -119.773127 180 4422ft 0kts
07-Aug-18 19:38 39.508521 -119.773127 180 4422ft 0kts
07-Aug-18 19:39 39.508901 -119.773123 180 4422ft 2kts
07-Aug-18 19:40 39.509234 -119.773118 180 4422ft 0kts
07-Aug-18 19:41 39.509234 -119.773118 180 4422ft 0kts
07-Aug-18 19:42 39.509234 -119.773118 180 4422ft 0kts
07-Aug-18 19:43 39.509234 -119.773118 180 4422ft 0kts
07-Aug-18 19:44 39.509234 -119.773118 180 4422ft 0kts
07-Aug-18 19:45 39.509234 -119.773118 180 4422ft 0kts
07-Aug-18 19:46 39.509234 -119.773118 180 4422ft 0kts
07-Aug-18 19:47 39.509233 -119.773118 180 4423ft 0kts
07-Aug-18 19:48 39.509233 -119.773118 180 4423ft 0kts
07-Aug-18 19:49 39.509233 -119.773118 180 4423ft 0kts
07-Aug-18 19:50 39.509233 -119.773118 180 4423ft 0kts
07-Aug-18 19:51 39.509233 -119.773118 180 4423ft 0kts
07-Aug-18 19:52 39.509233 -119.773118 180 4423ft 0kts
07-Aug-18 19:53 39.509182 -119.773118 180 4423ft 3kts
07-Aug-18 19:54 39.507974 -119.772932 125 4423ft 8kts
07-Aug-18 19:55 39.506205 -119.771426 176 4423ft 13kts
07-Aug-18 19:56 39.504114 -119.771420 181 4423ft 16kts
07-Aug-18 19:57 39.499858 -119.771424 179 4423ft 19kts
07-Aug-18 19:58 39.495736 -119.771513 178 4423ft 13kts
07-Aug-18 19:59 39.492095 -119.771490 180 4423ft 21kts
07-Aug-18 20:00 39.486074 -119.771504 179 4423ft 21kts
07-Aug-18 20:01 39.483707 -119.769973 86 4423ft 16kts
07-Aug-18 20:02 39.484496 -119.769339 358 4423ft 2kts
07-Aug-18 20:03 39.494208 -119.769324 359 4423ft 133kts
07-Aug-18 20:04 39.528658 -119.769079 357 5095ft 230kts
07-Aug-18 20:05 39.586011 -119.777961 353 7904ft 255kts
07-Aug-18 20:06 39.646030 -119.787957 353 10464ft 275kts
07-Aug-18 20:07 39.707316 -119.801529 335 12223ft 313kts
07-Aug-18 20:08 39.750247 -119.881519 283 14702ft 334kts
07-Aug-18 20:09 39.736716 -119.968439 232 16845ft 348kts
07-Aug-18 20:10 39.668307 -120.012554 179 18981ft 361kts
07-Aug-18 20:11 39.598485 -119.993360 163 19057ft 360kts
07-Aug-18 20:12 39.523000 -119.965599 163 20517ft 382kts
07-Aug-18 20:13 39.445105 -119.936558 163 22383ft 394kts
07-Aug-18 20:14 39.365528 -119.906319 163 24117ft 405kts
07-Aug-18 20:15 39.287857 -119.876139 163 25691ft 415kts
07-Aug-18 20:16 39.206657 -119.843814 163 27374ft 420kts
07-Aug-18 20:17 39.126144 -119.810782 163 29211ft 415kts
07-Aug-18 20:18 39.042606 -119.775338 163 30974ft 410kts
07-Aug-18 20:19 38.957818 -119.738189 163 32614ft 403kts
07-Aug-18 20:20 38.881301 -119.703930 162 33076ft 419kts
07-Aug-18 20:21 38.782734 -119.681029 179 33062ft 444kts
07-Aug-18 20:22 38.675547 -119.675452 179 33066ft 470kts
07-Aug-18 20:23 38.571518 -119.670063 179 33059ft 473kts
07-Aug-18 20:24 38.469356 -119.664774 179 33060ft 473kts
07-Aug-18 20:25 38.360226 -119.659140 179 33060ft 473kts
07-Aug-18 20:26 38.256867 -119.653820 179 33060ft 473kts
07-Aug-18 20:27 38.158203 -119.648755 179 33060ft 473kts
07-Aug-18 20:28 38.049369 -119.643184 179 33060ft 473kts
07-Aug-18 20:29 37.936353 -119.637415 179 33061ft 473kts
07-Aug-18 20:30 37.837345 -119.632376 179 33060ft 473kts
07-Aug-18 20:31 37.726806 -119.626784 179 33063ft 483kts
07-Aug-18 20:32 37.605426 -119.620643 179 33059ft 484kts
07-Aug-18 20:33 37.471536 -119.613882 179 33060ft 484kts
07-Aug-18 20:34 37.347005 -119.607613 179 33060ft 484kts
07-Aug-18 20:35 37.224320 -119.601455 179 33060ft 484kts
07-Aug-18 20:36 37.099134 -119.595236 180 33060ft 484kts
07-Aug-18 20:37 36.975927 -119.597786 183 33061ft 483kts
07-Aug-18 20:38 36.850077 -119.601142 183 33060ft 483kts
07-Aug-18 20:39 36.720616 -119.604532 183 33060ft 483kts
07-Aug-18 20:40 36.591427 -119.607872 183 33060ft 483kts
07-Aug-18 20:41 36.458165 -119.611285 183 33060ft 483kts
07-Aug-18 20:42 36.324492 -119.614683 183 33060ft 483kts
07-Aug-18 20:43 36.216153 -119.617421 183 33060ft 483kts
07-Aug-18 20:44 36.060949 -119.621322 183 33060ft 483kts
07-Aug-18 20:45 35.927883 -119.624648 183 33061ft 483kts
07-Aug-18 20:46 35.819685 -119.627341 183 33060ft 483kts
07-Aug-18 20:47 35.665485 -119.631164 183 33060ft 483kts
07-Aug-18 20:48 35.554615 -119.633900 183 33060ft 483kts
07-Aug-18 20:49 35.431096 -119.636817 183 32562ft 424kts
07-Aug-18 20:50 35.299673 -119.639878 180 29502ft 425kts
07-Aug-18 20:51 35.211204 -119.597112 145 27205ft 425kts
07-Aug-18 20:52 35.117022 -119.517975 144 24964ft 410kts
07-Aug-18 20:53 35.025789 -119.441231 144 22810ft 396kts
07-Aug-18 20:54 34.938190 -119.367725 144 20741ft 382kts
07-Aug-18 20:55 34.866893 -119.307943 145 19109ft 369kts
07-Aug-18 20:56 34.784235 -119.238865 145 17156ft 357kts
07-Aug-18 20:57 34.714471 -119.180704 145 15553ft 346kts
07-Aug-18 20:58 34.638038 -119.117023 145 13939ft 331kts
07-Aug-18 20:59 34.567198 -119.057515 145 12830ft 303kts
07-Aug-18 21:00 34.503072 -119.008123 151 11104ft 296kts
07-Aug-18 21:01 34.438618 -118.965812 152 10134ft 285kts
07-Aug-18 21:02 34.379931 -118.926693 152 9143ft 279kts
07-Aug-18 21:03 34.317605 -118.884628 152 7329ft 258kts
07-Aug-18 21:04 34.260134 -118.845443 151 6209ft 223kts
07-Aug-18 21:05 34.224087 -118.796056 122 5401ft 191kts
07-Aug-18 21:06 34.201745 -118.745706 99 4161ft 178kts
07-Aug-18 21:07 34.201306 -118.693140 91 3968ft 165kts
07-Aug-18 21:08 34.201036 -118.642898 92 3970ft 163kts
07-Aug-18 21:09 34.200599 -118.596300 92 3321ft 155kts
07-Aug-18 21:10 34.200203 -118.558719 92 2555ft 136kts
07-Aug-18 21:11 34.199724 -118.517650 92 2565ft 141kts
07-Aug-18 21:12 34.199216 -118.475810 92 2534ft 138kts
07-Aug-18 21:13 34.198790 -118.439520 92 1960ft 134kts
07-Aug-18 21:14 34.198875 -118.407278 93 1393ft 132kts
07-Aug-18 21:15 34.198104 -118.376530 92 941ft 128kts
07-Aug-18 21:16 34.197719 -118.355315 92 785ft 33kts
07-Aug-18 21:17 34.197197 -118.352251 114 785ft 0kts
07-Aug-18 21:18 34.196919 -118.351450 181 785ft 2kts
07-Aug-18 21:19 34.196811 -118.351452 180 785ft 0kts

Navigation Log

Ident Type
Flight plan parsing failed, navigation log unavailable